sensor_id;sensor_type;location;lat;lon;timestamp;P1;durP1;ratioP1;P2;durP2;ratioP2
78453;SDS011;67750;55.832;49.124;2023-03-01T00:02:03;8.35;;;4.00;;
78453;SDS011;67750;55.832;49.124;2023-03-01T00:04:33;6.37;;;3.50;;
78453;SDS011;67750;55.832;49.124;2023-03-01T00:07:03;7.28;;;3.42;;
78453;SDS011;67750;55.832;49.124;2023-03-01T00:09:32;8.85;;;3.50;;
78453;SDS011;67750;55.832;49.124;2023-03-01T00:12:01;8.55;;;3.98;;
78453;SDS011;67750;55.832;49.124;2023-03-01T00:14:31;10.10;;;3.50;;
78453;SDS011;67750;55.832;49.124;2023-03-01T00:17:01;8.83;;;3.62;;
78453;SDS011;67750;55.832;49.124;2023-03-01T00:19:30;9.00;;;3.65;;
78453;SDS011;67750;55.832;49.124;2023-03-01T00:21:59;6.62;;;3.05;;
78453;SDS011;67750;55.832;49.124;2023-03-01T00:24:29;5.40;;;3.10;;
78453;SDS011;67750;55.832;49.124;2023-03-01T00:26:58;8.35;;;3.22;;
78453;SDS011;67750;55.832;49.124;2023-03-01T00:29:28;7.50;;;3.70;;
78453;SDS011;67750;55.832;49.124;2023-03-01T00:31:57;6.37;;;3.42;;
78453;SDS011;67750;55.832;49.124;2023-03-01T00:34:26;6.37;;;2.95;;
78453;SDS011;67750;55.832;49.124;2023-03-01T00:36:56;7.00;;;3.30;;
78453;SDS011;67750;55.832;49.124;2023-03-01T00:39:27;6.50;;;3.27;;
78453;SDS011;67750;55.832;49.124;2023-03-01T00:41:56;5.95;;;3.45;;
78453;SDS011;67750;55.832;49.124;2023-03-01T00:44:26;7.60;;;3.77;;
78453;SDS011;67750;55.832;49.124;2023-03-01T00:46:55;5.67;;;2.90;;
78453;SDS011;67750;55.832;49.124;2023-03-01T00:49:24;6.00;;;3.12;;
78453;SDS011;67750;55.832;49.124;2023-03-01T00:51:54;6.70;;;3.20;;
78453;SDS011;67750;55.832;49.124;2023-03-01T00:54:24;5.37;;;3.30;;
78453;SDS011;67750;55.832;49.124;2023-03-01T00:56:53;6.10;;;3.08;;
78453;SDS011;67750;55.832;49.124;2023-03-01T00:59:22;6.35;;;3.35;;
78453;SDS011;67750;55.832;49.124;2023-03-01T01:01:52;6.00;;;3.25;;
78453;SDS011;67750;55.832;49.124;2023-03-01T01:04:22;8.90;;;3.15;;
78453;SDS011;67750;55.832;49.124;2023-03-01T01:06:51;5.65;;;3.02;;
78453;SDS011;67750;55.832;49.124;2023-03-01T01:09:21;6.33;;;3.05;;
78453;SDS011;67750;55.832;49.124;2023-03-01T01:11:50;6.30;;;3.40;;
78453;SDS011;67750;55.832;49.124;2023-03-01T01:14:20;6.05;;;3.05;;
78453;SDS011;67750;55.832;49.124;2023-03-01T01:16:49;4.90;;;2.77;;
78453;SDS011;67750;55.832;49.124;2023-03-01T01:19:19;7.35;;;3.42;;
78453;SDS011;67750;55.832;49.124;2023-03-01T01:21:48;5.50;;;2.80;;
78453;SDS011;67750;55.832;49.124;2023-03-01T01:24:18;4.70;;;2.52;;
78453;SDS011;67750;55.832;49.124;2023-03-01T01:26:48;5.78;;;2.87;;
78453;SDS011;67750;55.832;49.124;2023-03-01T01:29:17;4.20;;;2.20;;
78453;SDS011;67750;55.832;49.124;2023-03-01T01:31:47;4.78;;;2.80;;
78453;SDS011;67750;55.832;49.124;2023-03-01T01:34:17;5.03;;;2.58;;
78453;SDS011;67750;55.832;49.124;2023-03-01T01:39:36;4.90;;;2.50;;
78453;SDS011;67750;55.832;49.124;2023-03-01T01:42:06;4.60;;;2.40;;
78453;SDS011;67750;55.832;49.124;2023-03-01T01:44:35;4.83;;;2.12;;
78453;SDS011;67750;55.832;49.124;2023-03-01T01:49:54;5.20;;;2.77;;
78453;SDS011;67750;55.832;49.124;2023-03-01T01:58:04;4.60;;;2.40;;
78453;SDS011;67750;55.832;49.124;2023-03-01T02:00:34;5.08;;;2.17;;
78453;SDS011;67750;55.832;49.124;2023-03-01T02:03:04;5.47;;;2.77;;
78453;SDS011;67750;55.832;49.124;2023-03-01T02:08:25;4.65;;;2.50;;
78453;SDS011;67750;55.832;49.124;2023-03-01T02:10:55;4.17;;;2.20;;
78453;SDS011;67750;55.832;49.124;2023-03-01T02:13:26;4.28;;;1.98;;
78453;SDS011;67750;55.832;49.124;2023-03-01T02:15:57;5.75;;;2.17;;
78453;SDS011;67750;55.832;49.124;2023-03-01T02:18:27;3.30;;;1.57;;
78453;SDS011;67750;55.832;49.124;2023-03-01T02:23:46;6.50;;;2.75;;
78453;SDS011;67750;55.832;49.124;2023-03-01T02:29:05;4.50;;;2.00;;
78453;SDS011;67750;55.832;49.124;2023-03-01T02:31:35;5.33;;;2.00;;
78453;SDS011;67750;55.832;49.124;2023-03-01T02:34:26;5.47;;;2.30;;
78453;SDS011;67750;55.832;49.124;2023-03-01T02:36:57;6.85;;;2.58;;
78453;SDS011;67750;55.832;49.124;2023-03-01T02:39:28;7.12;;;2.47;;
78453;SDS011;67750;55.832;49.124;2023-03-01T02:41:59;6.67;;;2.40;;
78453;SDS011;67750;55.832;49.124;2023-03-01T02:44:29;7.50;;;2.22;;
78453;SDS011;67750;55.832;49.124;2023-03-01T02:46:58;3.15;;;1.82;;
78453;SDS011;67750;55.832;49.124;2023-03-01T02:49:31;6.55;;;2.20;;
78453;SDS011;67750;55.832;49.124;2023-03-01T02:57:41;11.22;;;2.40;;
78453;SDS011;67750;55.832;49.124;2023-03-01T03:03:00;4.35;;;2.45;;
78453;SDS011;67750;55.832;49.124;2023-03-01T03:05:30;4.72;;;2.35;;
78453;SDS011;67750;55.832;49.124;2023-03-01T03:08:01;5.62;;;2.30;;
78453;SDS011;67750;55.832;49.124;2023-03-01T03:10:34;5.87;;;2.98;;
78453;SDS011;67750;55.832;49.124;2023-03-01T03:13:04;4.50;;;2.52;;
78453;SDS011;67750;55.832;49.124;2023-03-01T03:15:34;5.35;;;2.75;;
78453;SDS011;67750;55.832;49.124;2023-03-01T03:18:06;6.03;;;2.42;;
78453;SDS011;67750;55.832;49.124;2023-03-01T03:20:35;5.83;;;2.58;;
78453;SDS011;67750;55.832;49.124;2023-03-01T03:23:05;6.80;;;2.77;;
78453;SDS011;67750;55.832;49.124;2023-03-01T03:25:35;7.08;;;2.80;;
78453;SDS011;67750;55.832;49.124;2023-03-01T03:28:05;6.20;;;2.62;;
78453;SDS011;67750;55.832;49.124;2023-03-01T03:30:54;5.28;;;2.90;;
78453;SDS011;67750;55.832;49.124;2023-03-01T03:33:25;7.17;;;3.05;;
78453;SDS011;67750;55.832;49.124;2023-03-01T03:35:54;5.00;;;2.37;;
78453;SDS011;67750;55.832;49.124;2023-03-01T03:38:24;5.20;;;2.42;;
78453;SDS011;67750;55.832;49.124;2023-03-01T03:43:43;5.90;;;2.60;;
78453;SDS011;67750;55.832;49.124;2023-03-01T03:46:12;7.53;;;2.60;;
78453;SDS011;67750;55.832;49.124;2023-03-01T03:48:42;6.80;;;2.40;;
78453;SDS011;67750;55.832;49.124;2023-03-01T03:54:01;5.85;;;2.80;;
78453;SDS011;67750;55.832;49.124;2023-03-01T03:56:31;9.08;;;3.27;;
78453;SDS011;67750;55.832;49.124;2023-03-01T03:59:00;5.25;;;2.50;;
78453;SDS011;67750;55.832;49.124;2023-03-01T04:01:30;4.90;;;2.45;;
78453;SDS011;67750;55.832;49.124;2023-03-01T04:03:59;8.13;;;3.42;;
78453;SDS011;67750;55.832;49.124;2023-03-01T04:06:30;4.22;;;2.30;;
78453;SDS011;67750;55.832;49.124;2023-03-01T04:08:59;7.65;;;2.90;;
78453;SDS011;67750;55.832;49.124;2023-03-01T04:11:49;6.50;;;2.95;;
78453;SDS011;67750;55.832;49.124;2023-03-01T04:14:18;6.30;;;2.77;;
78453;SDS011;67750;55.832;49.124;2023-03-01T04:16:47;5.55;;;2.98;;
78453;SDS011;67750;55.832;49.124;2023-03-01T04:19:17;7.60;;;2.95;;
78453;SDS011;67750;55.832;49.124;2023-03-01T04:21:46;5.70;;;2.80;;
78453;SDS011;67750;55.832;49.124;2023-03-01T04:24:16;5.15;;;2.25;;
78453;SDS011;67750;55.832;49.124;2023-03-01T04:26:45;5.40;;;2.62;;
78453;SDS011;67750;55.832;49.124;2023-03-01T04:29:14;5.67;;;2.33;;
78453;SDS011;67750;55.832;49.124;2023-03-01T04:31:44;5.28;;;2.30;;
78453;SDS011;67750;55.832;49.124;2023-03-01T04:34:13;8.85;;;2.58;;
78453;SDS011;67750;55.832;49.124;2023-03-01T04:36:43;5.42;;;2.12;;
78453;SDS011;67750;55.832;49.124;2023-03-01T04:39:12;3.67;;;1.60;;
78453;SDS011;67750;55.832;49.124;2023-03-01T04:41:41;4.58;;;1.90;;
78453;SDS011;67750;55.832;49.124;2023-03-01T04:44:11;9.13;;;2.17;;
78453;SDS011;67750;55.832;49.124;2023-03-01T04:46:40;5.53;;;2.00;;
78453;SDS011;67750;55.832;49.124;2023-03-01T04:49:10;4.78;;;2.02;;
78453;SDS011;67750;55.832;49.124;2023-03-01T04:51:39;2.87;;;1.67;;
78453;SDS011;67750;55.832;49.124;2023-03-01T04:54:10;4.12;;;1.50;;
78453;SDS011;67750;55.832;49.124;2023-03-01T04:56:39;4.03;;;1.40;;
78453;SDS011;67750;55.832;49.124;2023-03-01T04:59:08;3.70;;;1.95;;
78453;SDS011;67750;55.832;49.124;2023-03-01T05:01:39;5.30;;;1.70;;
78453;SDS011;67750;55.832;49.124;2023-03-01T05:04:09;3.02;;;1.50;;
78453;SDS011;67750;55.832;49.124;2023-03-01T05:06:39;3.00;;;1.45;;
78453;SDS011;67750;55.832;49.124;2023-03-01T05:09:09;5.15;;;1.80;;
78453;SDS011;67750;55.832;49.124;2023-03-01T05:11:38;3.47;;;1.70;;
78453;SDS011;67750;55.832;49.124;2023-03-01T05:14:09;3.08;;;1.70;;
78453;SDS011;67750;55.832;49.124;2023-03-01T05:16:39;3.80;;;1.67;;
78453;SDS011;67750;55.832;49.124;2023-03-01T05:19:08;4.28;;;1.87;;
78453;SDS011;67750;55.832;49.124;2023-03-01T05:21:57;4.42;;;1.50;;
78453;SDS011;67750;55.832;49.124;2023-03-01T05:24:47;3.85;;;1.40;;
78453;SDS011;67750;55.832;49.124;2023-03-01T05:27:16;3.62;;;1.37;;
78453;SDS011;67750;55.832;49.124;2023-03-01T05:29:47;5.33;;;1.72;;
78453;SDS011;67750;55.832;49.124;2023-03-01T05:32:16;4.00;;;1.27;;
78453;SDS011;67750;55.832;49.124;2023-03-01T05:34:46;2.10;;;1.30;;
78453;SDS011;67750;55.832;49.124;2023-03-01T05:37:15;3.65;;;1.42;;
78453;SDS011;67750;55.832;49.124;2023-03-01T05:39:46;5.55;;;2.90;;
78453;SDS011;67750;55.832;49.124;2023-03-01T05:42:17;3.30;;;1.20;;
78453;SDS011;67750;55.832;49.124;2023-03-01T05:44:46;3.47;;;1.27;;
78453;SDS011;67750;55.832;49.124;2023-03-01T05:47:16;2.33;;;0.93;;
78453;SDS011;67750;55.832;49.124;2023-03-01T05:49:45;3.65;;;1.22;;
78453;SDS011;67750;55.832;49.124;2023-03-01T05:52:16;2.70;;;1.22;;
78453;SDS011;67750;55.832;49.124;2023-03-01T05:54:45;3.45;;;1.30;;
78453;SDS011;67750;55.832;49.124;2023-03-01T05:57:15;4.10;;;1.57;;
78453;SDS011;67750;55.832;49.124;2023-03-01T05:59:45;1.77;;;1.10;;
78453;SDS011;67750;55.832;49.124;2023-03-01T06:02:14;4.40;;;1.10;;
78453;SDS011;67750;55.832;49.124;2023-03-01T06:04:44;4.53;;;1.40;;
78453;SDS011;67750;55.832;49.124;2023-03-01T06:07:13;2.87;;;1.27;;
78453;SDS011;67750;55.832;49.124;2023-03-01T06:09:42;2.75;;;1.22;;
78453;SDS011;67750;55.832;49.124;2023-03-01T06:12:12;5.87;;;1.20;;
78453;SDS011;67750;55.832;49.124;2023-03-01T06:14:41;3.70;;;1.32;;
78453;SDS011;67750;55.832;49.124;2023-03-01T06:17:10;4.37;;;0.98;;
78453;SDS011;67750;55.832;49.124;2023-03-01T06:19:40;3.72;;;1.00;;
78453;SDS011;67750;55.832;49.124;2023-03-01T06:22:09;2.75;;;0.90;;
78453;SDS011;67750;55.832;49.124;2023-03-01T06:24:39;2.17;;;1.07;;
78453;SDS011;67750;55.832;49.124;2023-03-01T06:27:08;3.45;;;1.25;;
78453;SDS011;67750;55.832;49.124;2023-03-01T06:29:37;3.22;;;0.90;;
78453;SDS011;67750;55.832;49.124;2023-03-01T06:32:07;3.83;;;0.90;;
78453;SDS011;67750;55.832;49.124;2023-03-01T06:34:37;3.47;;;1.05;;
78453;SDS011;67750;55.832;49.124;2023-03-01T06:37:06;2.30;;;1.00;;
78453;SDS011;67750;55.832;49.124;2023-03-01T06:42:24;2.90;;;1.07;;
78453;SDS011;67750;55.832;49.124;2023-03-01T06:44:53;2.55;;;1.20;;
78453;SDS011;67750;55.832;49.124;2023-03-01T06:47:23;4.70;;;1.35;;
78453;SDS011;67750;55.832;49.124;2023-03-01T06:49:52;3.17;;;1.40;;
78453;SDS011;67750;55.832;49.124;2023-03-01T06:52:22;6.53;;;0.95;;
78453;SDS011;67750;55.832;49.124;2023-03-01T06:54:51;2.70;;;1.02;;
78453;SDS011;67750;55.832;49.124;2023-03-01T06:57:21;3.60;;;1.00;;
78453;SDS011;67750;55.832;49.124;2023-03-01T06:59:50;2.95;;;0.90;;
78453;SDS011;67750;55.832;49.124;2023-03-01T07:02:20;2.12;;;0.80;;
78453;SDS011;67750;55.832;49.124;2023-03-01T07:04:49;7.20;;;1.30;;
78453;SDS011;67750;55.832;49.124;2023-03-01T07:07:19;5.45;;;1.50;;
78453;SDS011;67750;55.832;49.124;2023-03-01T07:09:49;3.25;;;0.75;;
78453;SDS011;67750;55.832;49.124;2023-03-01T07:12:20;6.45;;;1.35;;
78453;SDS011;67750;55.832;49.124;2023-03-01T07:14:49;7.08;;;1.10;;
78453;SDS011;67750;55.832;49.124;2023-03-01T07:17:18;3.42;;;1.05;;
78453;SDS011;67750;55.832;49.124;2023-03-01T07:19:48;2.10;;;0.90;;
78453;SDS011;67750;55.832;49.124;2023-03-01T07:22:17;3.08;;;0.95;;
78453;SDS011;67750;55.832;49.124;2023-03-01T07:24:47;5.03;;;1.25;;
78453;SDS011;67750;55.832;49.124;2023-03-01T07:27:16;2.35;;;0.95;;
78453;SDS011;67750;55.832;49.124;2023-03-01T07:29:45;4.12;;;1.25;;
78453;SDS011;67750;55.832;49.124;2023-03-01T07:32:15;5.70;;;1.27;;
78453;SDS011;67750;55.832;49.124;2023-03-01T07:34:45;4.62;;;1.37;;
78453;SDS011;67750;55.832;49.124;2023-03-01T07:37:14;4.75;;;1.70;;
78453;SDS011;67750;55.832;49.124;2023-03-01T07:39:44;5.67;;;1.82;;
78453;SDS011;67750;55.832;49.124;2023-03-01T07:42:13;1.85;;;0.78;;
78453;SDS011;67750;55.832;49.124;2023-03-01T07:44:43;3.30;;;0.90;;
78453;SDS011;67750;55.832;49.124;2023-03-01T07:47:12;2.42;;;1.10;;
78453;SDS011;67750;55.832;49.124;2023-03-01T07:49:41;8.48;;;2.80;;
78453;SDS011;67750;55.832;49.124;2023-03-01T07:52:11;3.20;;;0.80;;
78453;SDS011;67750;55.832;49.124;2023-03-01T07:54:42;3.22;;;1.10;;
78453;SDS011;67750;55.832;49.124;2023-03-01T07:57:12;4.40;;;1.20;;
78453;SDS011;67750;55.832;49.124;2023-03-01T07:59:41;3.20;;;0.88;;
78453;SDS011;67750;55.832;49.124;2023-03-01T08:02:10;3.85;;;1.10;;
78453;SDS011;67750;55.832;49.124;2023-03-01T08:04:42;2.02;;;1.00;;
78453;SDS011;67750;55.832;49.124;2023-03-01T08:07:11;2.90;;;0.78;;
78453;SDS011;67750;55.832;49.124;2023-03-01T08:09:40;2.65;;;0.98;;
78453;SDS011;67750;55.832;49.124;2023-03-01T08:12:10;5.58;;;1.20;;
78453;SDS011;67750;55.832;49.124;2023-03-01T08:14:39;2.08;;;0.75;;
78453;SDS011;67750;55.832;49.124;2023-03-01T08:17:09;2.65;;;1.00;;
78453;SDS011;67750;55.832;49.124;2023-03-01T08:19:38;3.02;;;0.93;;
78453;SDS011;67750;55.832;49.124;2023-03-01T08:22:07;3.15;;;0.93;;
78453;SDS011;67750;55.832;49.124;2023-03-01T08:24:37;1.75;;;0.88;;
78453;SDS011;67750;55.832;49.124;2023-03-01T08:27:06;2.80;;;0.98;;
78453;SDS011;67750;55.832;49.124;2023-03-01T08:29:36;3.67;;;1.25;;
78453;SDS011;67750;55.832;49.124;2023-03-01T08:32:05;1.40;;;0.55;;
78453;SDS011;67750;55.832;49.124;2023-03-01T08:34:34;5.25;;;1.00;;
78453;SDS011;67750;55.832;49.124;2023-03-01T08:37:04;5.92;;;1.00;;
78453;SDS011;67750;55.832;49.124;2023-03-01T08:39:33;5.60;;;1.05;;
78453;SDS011;67750;55.832;49.124;2023-03-01T08:42:03;4.17;;;0.80;;
78453;SDS011;67750;55.832;49.124;2023-03-01T08:44:32;5.65;;;1.20;;
78453;SDS011;67750;55.832;49.124;2023-03-01T08:47:01;4.58;;;1.22;;
78453;SDS011;67750;55.832;49.124;2023-03-01T08:49:31;2.20;;;0.82;;
78453;SDS011;67750;55.832;49.124;2023-03-01T08:52:01;1.82;;;0.85;;
78453;SDS011;67750;55.832;49.124;2023-03-01T08:54:31;5.47;;;1.20;;
78453;SDS011;67750;55.832;49.124;2023-03-01T08:59:49;2.87;;;0.93;;
78453;SDS011;67750;55.832;49.124;2023-03-01T09:02:19;3.87;;;1.00;;
78453;SDS011;67750;55.832;49.124;2023-03-01T09:04:48;4.62;;;0.80;;
78453;SDS011;67750;55.832;49.124;2023-03-01T09:07:18;3.62;;;0.80;;
78453;SDS011;67750;55.832;49.124;2023-03-01T09:09:47;1.00;;;0.68;;
78453;SDS011;67750;55.832;49.124;2023-03-01T09:12:18;3.45;;;0.80;;
78453;SDS011;67750;55.832;49.124;2023-03-01T09:14:47;2.80;;;0.80;;
78453;SDS011;67750;55.832;49.124;2023-03-01T09:17:17;1.90;;;0.60;;
78453;SDS011;67750;55.832;49.124;2023-03-01T09:19:48;2.10;;;1.00;;
78453;SDS011;67750;55.832;49.124;2023-03-01T09:22:17;5.60;;;0.70;;
78453;SDS011;67750;55.832;49.124;2023-03-01T09:24:47;4.12;;;1.00;;
78453;SDS011;67750;55.832;49.124;2023-03-01T09:27:16;2.00;;;0.57;;
78453;SDS011;67750;55.832;49.124;2023-03-01T09:29:46;3.98;;;0.75;;
78453;SDS011;67750;55.832;49.124;2023-03-01T13:47:25;6.55;;;1.67;;
78453;SDS011;67750;55.832;49.124;2023-03-01T13:52:48;6.33;;;1.62;;
78453;SDS011;67750;55.832;49.124;2023-03-01T13:57:48;4.22;;;1.72;;
78453;SDS011;67750;55.832;49.124;2023-03-01T14:05:59;3.70;;;1.40;;
78453;SDS011;67750;55.832;49.124;2023-03-01T14:08:31;3.30;;;1.32;;
78453;SDS011;67750;55.832;49.124;2023-03-01T14:19:30;3.65;;;1.47;;
78453;SDS011;67750;55.832;49.124;2023-03-01T14:24:51;2.80;;;1.35;;
78453;SDS011;67750;55.832;49.124;2023-03-01T14:27:21;3.17;;;1.60;;
78453;SDS011;67750;55.832;49.124;2023-03-01T14:32:41;3.02;;;1.20;;
78453;SDS011;67750;55.832;49.124;2023-03-01T14:38:01;5.92;;;1.40;;
78453;SDS011;67750;55.832;49.124;2023-03-01T14:40:32;3.12;;;1.50;;
78453;SDS011;67750;55.832;49.124;2023-03-01T14:43:03;3.67;;;1.55;;
78453;SDS011;67750;55.832;49.124;2023-03-01T14:45:32;4.25;;;1.82;;
78453;SDS011;67750;55.832;49.124;2023-03-01T14:48:02;4.72;;;2.05;;
78453;SDS011;67750;55.832;49.124;2023-03-01T14:51:06;5.15;;;2.10;;
78453;SDS011;67750;55.832;49.124;2023-03-01T14:55:54;5.97;;;1.90;;
78453;SDS011;67750;55.832;49.124;2023-03-01T14:58:25;4.87;;;1.98;;
78453;SDS011;67750;55.832;49.124;2023-03-01T15:00:56;7.50;;;2.33;;
78453;SDS011;67750;55.832;49.124;2023-03-01T15:03:28;3.52;;;1.65;;
78453;SDS011;67750;55.832;49.124;2023-03-01T15:05:57;6.85;;;2.17;;
78453;SDS011;67750;55.832;49.124;2023-03-01T15:08:27;4.67;;;1.80;;
78453;SDS011;67750;55.832;49.124;2023-03-01T15:13:29;5.72;;;1.60;;
78453;SDS011;67750;55.832;49.124;2023-03-01T15:19:21;3.62;;;1.40;;
78453;SDS011;67750;55.832;49.124;2023-03-01T15:21:20;4.15;;;1.30;;
78453;SDS011;67750;55.832;49.124;2023-03-01T15:26:24;2.80;;;1.45;;
78453;SDS011;67750;55.832;49.124;2023-03-01T15:28:54;4.90;;;1.90;;
78453;SDS011;67750;55.832;49.124;2023-03-01T15:31:26;4.22;;;1.47;;
78453;SDS011;67750;55.832;49.124;2023-03-01T15:36:45;3.67;;;1.17;;
78453;SDS011;67750;55.832;49.124;2023-03-01T15:47:47;7.65;;;1.45;;
78453;SDS011;67750;55.832;49.124;2023-03-01T15:50:19;3.58;;;1.27;;
78453;SDS011;67750;55.832;49.124;2023-03-01T15:52:48;3.05;;;1.25;;
78453;SDS011;67750;55.832;49.124;2023-03-01T15:55:19;3.47;;;1.40;;
78453;SDS011;67750;55.832;49.124;2023-03-01T15:57:49;4.28;;;1.50;;
78453;SDS011;67750;55.832;49.124;2023-03-01T16:00:19;5.12;;;1.47;;
78453;SDS011;67750;55.832;49.124;2023-03-01T16:02:49;6.65;;;1.62;;
78453;SDS011;67750;55.832;49.124;2023-03-01T16:05:20;5.10;;;1.40;;
78453;SDS011;67750;55.832;49.124;2023-03-01T16:07:50;4.60;;;1.20;;
78453;SDS011;67750;55.832;49.124;2023-03-01T16:10:20;4.55;;;1.67;;
78453;SDS011;67750;55.832;49.124;2023-03-01T16:12:50;3.85;;;1.30;;
78453;SDS011;67750;55.832;49.124;2023-03-01T16:15:21;3.60;;;1.20;;
78453;SDS011;67750;55.832;49.124;2023-03-01T16:17:51;3.65;;;1.55;;
78453;SDS011;67750;55.832;49.124;2023-03-01T16:20:40;4.00;;;1.57;;
78453;SDS011;67750;55.832;49.124;2023-03-01T16:23:10;4.70;;;1.70;;
78453;SDS011;67750;55.832;49.124;2023-03-01T16:25:41;5.62;;;1.35;;
78453;SDS011;67750;55.832;49.124;2023-03-01T16:28:10;5.35;;;1.30;;
78453;SDS011;67750;55.832;49.124;2023-03-01T16:30:44;4.50;;;1.40;;
78453;SDS011;67750;55.832;49.124;2023-03-01T16:33:11;5.53;;;1.92;;
78453;SDS011;67750;55.832;49.124;2023-03-01T16:35:41;5.28;;;1.37;;
78453;SDS011;67750;55.832;49.124;2023-03-01T16:38:10;3.67;;;1.67;;
78453;SDS011;67750;55.832;49.124;2023-03-01T16:40:40;5.65;;;1.52;;
78453;SDS011;67750;55.832;49.124;2023-03-01T16:43:11;6.00;;;1.92;;
78453;SDS011;67750;55.832;49.124;2023-03-01T16:45:40;3.62;;;1.75;;
78453;SDS011;67750;55.832;49.124;2023-03-01T16:48:12;4.28;;;1.70;;
78453;SDS011;67750;55.832;49.124;2023-03-01T16:50:41;3.75;;;1.37;;
78453;SDS011;67750;55.832;49.124;2023-03-01T16:53:11;8.15;;;1.90;;
78453;SDS011;67750;55.832;49.124;2023-03-01T16:55:40;5.20;;;2.20;;
78453;SDS011;67750;55.832;49.124;2023-03-01T16:58:11;4.53;;;1.80;;
78453;SDS011;67750;55.832;49.124;2023-03-01T17:00:42;4.12;;;1.67;;
78453;SDS011;67750;55.832;49.124;2023-03-01T17:03:12;4.35;;;1.67;;
78453;SDS011;67750;55.832;49.124;2023-03-01T17:05:41;5.08;;;1.60;;
78453;SDS011;67750;55.832;49.124;2023-03-01T17:08:11;5.03;;;1.98;;
78453;SDS011;67750;55.832;49.124;2023-03-01T17:10:40;6.42;;;2.17;;
78453;SDS011;67750;55.832;49.124;2023-03-01T17:13:09;5.42;;;1.45;;
78453;SDS011;67750;55.832;49.124;2023-03-01T17:15:39;7.37;;;1.62;;
78453;SDS011;67750;55.832;49.124;2023-03-01T17:18:09;3.65;;;1.50;;
78453;SDS011;67750;55.832;49.124;2023-03-01T17:20:38;2.50;;;1.47;;
78453;SDS011;67750;55.832;49.124;2023-03-01T17:23:08;6.35;;;2.10;;
78453;SDS011;67750;55.832;49.124;2023-03-01T17:25:40;5.37;;;2.08;;
78453;SDS011;67750;55.832;49.124;2023-03-01T17:28:09;3.35;;;1.82;;
78453;SDS011;67750;55.832;49.124;2023-03-01T17:31:12;4.95;;;1.92;;
78453;SDS011;67750;55.832;49.124;2023-03-01T17:33:11;7.50;;;2.62;;
78453;SDS011;67750;55.832;49.124;2023-03-01T17:35:40;5.25;;;1.60;;
78453;SDS011;67750;55.832;49.124;2023-03-01T17:38:12;6.80;;;1.80;;
78453;SDS011;67750;55.832;49.124;2023-03-01T17:40:42;4.55;;;1.70;;
78453;SDS011;67750;55.832;49.124;2023-03-01T17:43:14;4.70;;;1.85;;
78453;SDS011;67750;55.832;49.124;2023-03-01T17:45:44;7.72;;;2.00;;
78453;SDS011;67750;55.832;49.124;2023-03-01T17:48:14;5.42;;;2.08;;
78453;SDS011;67750;55.832;49.124;2023-03-01T17:50:44;3.70;;;1.35;;
78453;SDS011;67750;55.832;49.124;2023-03-01T17:53:14;6.45;;;2.25;;
78453;SDS011;67750;55.832;49.124;2023-03-01T17:55:43;3.37;;;1.35;;
78453;SDS011;67750;55.832;49.124;2023-03-01T17:58:14;5.67;;;1.60;;
78453;SDS011;67750;55.832;49.124;2023-03-01T18:00:45;6.90;;;2.08;;
78453;SDS011;67750;55.832;49.124;2023-03-01T18:03:15;8.00;;;2.25;;
78453;SDS011;67750;55.832;49.124;2023-03-01T18:05:45;3.95;;;1.50;;
78453;SDS011;67750;55.832;49.124;2023-03-01T18:08:14;4.75;;;1.75;;
78453;SDS011;67750;55.832;49.124;2023-03-01T18:10:44;8.20;;;2.17;;
78453;SDS011;67750;55.832;49.124;2023-03-01T18:13:13;5.60;;;2.30;;
78453;SDS011;67750;55.832;49.124;2023-03-01T18:15:43;4.58;;;1.90;;
78453;SDS011;67750;55.832;49.124;2023-03-01T18:18:12;7.58;;;1.95;;
78453;SDS011;67750;55.832;49.124;2023-03-01T18:20:42;5.72;;;1.50;;
78453;SDS011;67750;55.832;49.124;2023-03-01T18:23:11;5.05;;;1.85;;
78453;SDS011;67750;55.832;49.124;2023-03-01T18:25:41;7.60;;;1.72;;
78453;SDS011;67750;55.832;49.124;2023-03-01T18:28:10;5.22;;;1.80;;
78453;SDS011;67750;55.832;49.124;2023-03-01T18:30:39;6.70;;;1.62;;
78453;SDS011;67750;55.832;49.124;2023-03-01T18:33:09;4.92;;;1.85;;
78453;SDS011;67750;55.832;49.124;2023-03-01T18:35:38;3.37;;;1.60;;
78453;SDS011;67750;55.832;49.124;2023-03-01T18:38:08;8.28;;;1.80;;
78453;SDS011;67750;55.832;49.124;2023-03-01T18:40:38;5.55;;;1.60;;
78453;SDS011;67750;55.832;49.124;2023-03-01T18:43:07;5.67;;;1.22;;
78453;SDS011;67750;55.832;49.124;2023-03-01T18:45:36;5.47;;;1.90;;
78453;SDS011;67750;55.832;49.124;2023-03-01T18:48:06;5.20;;;1.60;;
78453;SDS011;67750;55.832;49.124;2023-03-01T18:50:35;4.22;;;1.62;;
78453;SDS011;67750;55.832;49.124;2023-03-01T18:53:05;7.50;;;1.87;;
78453;SDS011;67750;55.832;49.124;2023-03-01T18:55:35;4.33;;;1.80;;
78453;SDS011;67750;55.832;49.124;2023-03-01T18:58:04;5.92;;;1.77;;
78453;SDS011;67750;55.832;49.124;2023-03-01T19:00:34;8.33;;;1.80;;
78453;SDS011;67750;55.832;49.124;2023-03-01T19:03:03;6.20;;;1.87;;
78453;SDS011;67750;55.832;49.124;2023-03-01T19:05:32;3.98;;;1.55;;
78453;SDS011;67750;55.832;49.124;2023-03-01T19:08:02;7.75;;;1.70;;
78453;SDS011;67750;55.832;49.124;2023-03-01T19:10:31;3.30;;;1.45;;
78453;SDS011;67750;55.832;49.124;2023-03-01T19:13:01;4.45;;;1.47;;
78453;SDS011;67750;55.832;49.124;2023-03-01T19:15:31;8.68;;;1.90;;
78453;SDS011;67750;55.832;49.124;2023-03-01T19:18:00;5.30;;;1.87;;
78453;SDS011;67750;55.832;49.124;2023-03-01T19:20:31;7.78;;;1.70;;
78453;SDS011;67750;55.832;49.124;2023-03-01T19:23:00;3.52;;;1.57;;
78453;SDS011;67750;55.832;49.124;2023-03-01T19:25:30;6.10;;;2.00;;
78453;SDS011;67750;55.832;49.124;2023-03-01T19:27:59;7.30;;;1.40;;
78453;SDS011;67750;55.832;49.124;2023-03-01T19:30:29;6.33;;;1.85;;
78453;SDS011;67750;55.832;49.124;2023-03-01T19:32:58;4.08;;;1.57;;
78453;SDS011;67750;55.832;49.124;2023-03-01T19:35:27;3.37;;;1.45;;
78453;SDS011;67750;55.832;49.124;2023-03-01T19:37:57;3.52;;;1.47;;
78453;SDS011;67750;55.832;49.124;2023-03-01T19:40:26;4.53;;;1.85;;
78453;SDS011;67750;55.832;49.124;2023-03-01T19:42:56;8.73;;;2.00;;
78453;SDS011;67750;55.832;49.124;2023-03-01T19:45:25;5.20;;;2.08;;
78453;SDS011;67750;55.832;49.124;2023-03-01T19:47:54;6.22;;;1.90;;
78453;SDS011;67750;55.832;49.124;2023-03-01T19:50:24;5.72;;;2.15;;
78453;SDS011;67750;55.832;49.124;2023-03-01T19:52:53;7.15;;;2.20;;
78453;SDS011;67750;55.832;49.124;2023-03-01T19:57:54;8.15;;;2.33;;
78453;SDS011;67750;55.832;49.124;2023-03-01T20:00:23;8.25;;;2.87;;
78453;SDS011;67750;55.832;49.124;2023-03-01T20:02:53;6.00;;;1.87;;
78453;SDS011;67750;55.832;49.124;2023-03-01T20:05:22;9.75;;;2.40;;
78453;SDS011;67750;55.832;49.124;2023-03-01T20:10:41;4.75;;;2.08;;
78453;SDS011;67750;55.832;49.124;2023-03-01T20:13:11;3.60;;;1.60;;
78453;SDS011;67750;55.832;49.124;2023-03-01T20:15:41;4.92;;;2.35;;
78453;SDS011;67750;55.832;49.124;2023-03-01T20:18:10;5.42;;;1.62;;
78453;SDS011;67750;55.832;49.124;2023-03-01T20:20:41;7.20;;;2.25;;
78453;SDS011;67750;55.832;49.124;2023-03-01T20:23:10;3.80;;;1.70;;
78453;SDS011;67750;55.832;49.124;2023-03-01T20:25:40;4.20;;;1.92;;
78453;SDS011;67750;55.832;49.124;2023-03-01T20:28:09;7.05;;;1.35;;
78453;SDS011;67750;55.832;49.124;2023-03-01T20:30:38;5.50;;;1.67;;
78453;SDS011;67750;55.832;49.124;2023-03-01T20:33:08;5.72;;;1.65;;
78453;SDS011;67750;55.832;49.124;2023-03-01T20:38:27;4.28;;;1.50;;
78453;SDS011;67750;55.832;49.124;2023-03-01T20:41:30;4.30;;;1.55;;
78453;SDS011;67750;55.832;49.124;2023-03-01T20:43:28;6.00;;;2.15;;